createdAt,value
2023-05-24T00:02:24.181Z,9.70
2023-05-24T00:04:53.003Z,9.50
2023-05-24T00:07:22.046Z,9.60
2023-05-24T00:09:50.287Z,9.60
2023-05-24T00:12:18.443Z,9.60
2023-05-24T00:14:46.874Z,9.70
2023-05-24T00:17:15.064Z,9.60
2023-05-24T00:19:45.154Z,9.60
2023-05-24T00:22:14.196Z,9.50
2023-05-24T00:24:42.546Z,9.40
2023-05-24T00:27:12.397Z,9.30
2023-05-24T00:29:40.864Z,9.60
2023-05-24T00:32:09.062Z,9.50
2023-05-24T00:34:39.281Z,9.40
2023-05-24T00:37:09.338Z,9.20
2023-05-24T00:39:37.891Z,9.10
2023-05-24T00:42:06.977Z,9.20
2023-05-24T00:44:35.377Z,9.10
2023-05-24T00:47:03.809Z,9.20
2023-05-24T00:49:33.042Z,9.10
2023-05-24T00:52:01.969Z,9.10
2023-05-24T00:54:32.217Z,9.10
2023-05-24T00:57:00.901Z,9.00
2023-05-24T00:59:29.727Z,9.00
2023-05-24T01:01:57.945Z,8.90
2023-05-24T01:04:26.584Z,8.90
2023-05-24T01:07:05.707Z,8.90
2023-05-24T01:09:48.623Z,9.00
2023-05-24T01:12:27.525Z,8.90
2023-05-24T01:15:06.540Z,8.90
2023-05-24T01:17:42.781Z,8.90
2023-05-24T01:20:13.826Z,8.90
2023-05-24T01:23:02.162Z,8.90
2023-05-24T01:25:55.520Z,9.00
2023-05-24T01:28:26.044Z,8.90
2023-05-24T01:30:54.999Z,8.90
2023-05-24T01:33:23.693Z,8.90
2023-05-24T01:35:51.845Z,8.80
2023-05-24T01:38:20.360Z,8.80
2023-05-24T01:40:53.925Z,8.80
2023-05-24T01:43:33.128Z,8.80
2023-05-24T01:46:08.618Z,8.70
2023-05-24T01:48:49.349Z,8.60
2023-05-24T01:51:22.837Z,8.50
2023-05-24T01:53:52.956Z,8.50
2023-05-24T01:56:23.204Z,8.70
2023-05-24T01:58:55.724Z,8.60
2023-05-24T02:01:24.666Z,8.30
2023-05-24T02:03:53.152Z,8.50
2023-05-24T02:06:21.273Z,8.40
2023-05-24T02:08:49.855Z,8.20
2023-05-24T02:11:18.035Z,8.20
2023-05-24T02:13:46.185Z,8.30
2023-05-24T02:16:16.111Z,8.40
2023-05-24T02:18:45.268Z,8.20
2023-05-24T02:21:13.789Z,8.20
2023-05-24T02:23:42.234Z,8.20
2023-05-24T02:26:12.053Z,8.20
2023-05-24T02:28:40.634Z,8.30
2023-05-24T02:31:08.834Z,8.20
2023-05-24T02:33:38.826Z,8.10
2023-05-24T02:36:07.155Z,8.10
2023-05-24T02:38:35.373Z,8.10
2023-05-24T02:41:03.527Z,8.20
2023-05-24T02:43:31.985Z,8.20
2023-05-24T02:46:00.324Z,8.20
2023-05-24T02:48:28.940Z,8.20
2023-05-24T02:50:58.463Z,8.10
2023-05-24T02:53:26.905Z,8.10
2023-05-24T02:55:55.085Z,8.10
2023-05-24T02:58:23.288Z,8.00
2023-05-24T03:00:51.559Z,8.10
2023-05-24T03:03:19.798Z,8.10
2023-05-24T03:05:47.964Z,8.00
2023-05-24T03:08:17.533Z,8.10
2023-05-24T03:10:46.289Z,8.10
2023-05-24T03:13:14.442Z,8.10
2023-05-24T03:15:43.396Z,8.00
2023-05-24T03:18:11.608Z,8.10
2023-05-24T03:20:39.931Z,8.10
2023-05-24T03:23:09.706Z,8.20
2023-05-24T03:25:39.260Z,8.20
2023-05-24T03:28:08.150Z,8.20
2023-05-24T03:30:36.306Z,8.30
2023-05-24T03:33:04.693Z,8.20
2023-05-24T03:35:32.883Z,8.20
2023-05-24T03:38:01.185Z,8.20
2023-05-24T03:40:32.415Z,8.30
2023-05-24T03:43:04.249Z,8.20
2023-05-24T03:45:39.093Z,8.20
2023-05-24T03:48:08.239Z,8.30
2023-05-24T03:50:36.513Z,8.30
2023-05-24T03:53:04.839Z,8.40
2023-05-24T03:55:33.317Z,8.40
2023-05-24T03:58:03.258Z,8.40
2023-05-24T04:00:31.824Z,8.50
2023-05-24T04:03:00.352Z,8.50
2023-05-24T04:05:29.994Z,8.60
2023-05-24T04:07:58.572Z,8.50
2023-05-24T04:10:27.066Z,8.50
2023-05-24T04:12:57.360Z,8.50
2023-05-24T04:15:27.201Z,8.60
2023-05-24T04:17:56.031Z,8.70
2023-05-24T04:20:26.029Z,8.70
2023-05-24T04:22:54.444Z,8.70
2023-05-24T04:25:23.337Z,8.60
2023-05-24T04:27:51.647Z,8.70
2023-05-24T04:30:21.424Z,8.80
2023-05-24T04:32:51.462Z,8.70
2023-05-24T04:35:20.704Z,8.80
2023-05-24T04:37:50.210Z,8.80
2023-05-24T04:40:21.065Z,8.80
2023-05-24T04:42:49.421Z,8.90
2023-05-24T04:45:18.133Z,9.00
2023-05-24T04:47:46.609Z,9.00
2023-05-24T04:50:16.199Z,9.00
2023-05-24T04:52:44.652Z,9.00
2023-05-24T04:55:12.836Z,9.10
2023-05-24T04:57:41.286Z,9.10
2023-05-24T05:00:11.334Z,9.40
2023-05-24T05:02:39.582Z,9.40
2023-05-24T05:05:09.065Z,9.30
2023-05-24T05:07:39.504Z,9.40
2023-05-24T05:10:09.085Z,9.50
2023-05-24T05:12:37.248Z,9.50
2023-05-24T05:15:07.745Z,9.50
2023-05-24T05:17:36.358Z,9.60
2023-05-24T05:20:04.728Z,9.60
2023-05-24T05:22:33.331Z,9.70
2023-05-24T05:25:03.062Z,9.60
2023-05-24T05:27:31.748Z,9.60
2023-05-24T05:30:00.191Z,9.70
2023-05-24T05:32:28.719Z,9.70
2023-05-24T05:34:56.939Z,9.70
2023-05-24T05:37:25.126Z,9.70
2023-05-24T05:39:53.306Z,9.70
2023-05-24T05:42:22.824Z,9.70
2023-05-24T05:44:51.298Z,9.80
2023-05-24T05:47:19.504Z,9.80
2023-05-24T05:49:47.981Z,9.80
2023-05-24T05:52:16.231Z,9.80
2023-05-24T05:54:44.373Z,9.80
2023-05-24T05:57:13.026Z,9.80
2023-05-24T05:59:42.996Z,9.90
2023-05-24T06:02:12.867Z,9.90
2023-05-24T06:04:41.441Z,9.90
2023-05-24T06:07:09.610Z,10.00
2023-05-24T06:09:38.135Z,10.10
2023-05-24T06:12:07.055Z,10.20
2023-05-24T06:14:38.722Z,10.10
2023-05-24T06:17:08.325Z,10.20
2023-05-24T06:19:36.499Z,10.20
2023-05-24T06:22:04.883Z,10.10
2023-05-24T06:24:34.876Z,10.20
2023-05-24T06:27:05.322Z,10.20
2023-05-24T06:29:33.784Z,10.30
2023-05-24T06:32:02.297Z,10.10
2023-05-24T06:34:31.807Z,10.30
2023-05-24T06:37:00.220Z,10.40
2023-05-24T06:39:28.486Z,10.40
2023-05-24T06:41:57.062Z,10.40
2023-05-24T06:44:31.307Z,10.40
2023-05-24T06:46:59.485Z,10.40
2023-05-24T06:49:28.033Z,10.50
2023-05-24T06:51:57.899Z,10.50
2023-05-24T06:54:26.071Z,10.50
2023-05-24T06:56:54.239Z,10.60
2023-05-24T06:59:24.360Z,10.60
2023-05-24T07:01:58.394Z,10.60
2023-05-24T07:04:28.749Z,10.70
2023-05-24T07:06:58.563Z,10.70
2023-05-24T07:09:27.135Z,10.90
2023-05-24T07:11:55.333Z,10.90
2023-05-24T07:14:26.250Z,11.00
2023-05-24T07:16:57.751Z,10.80
2023-05-24T07:19:29.201Z,10.80
2023-05-24T07:21:59.433Z,10.80
2023-05-24T07:24:27.950Z,10.80
2023-05-24T07:26:57.438Z,10.80
2023-05-24T07:29:26.416Z,10.80
2023-05-24T07:31:58.058Z,10.90
2023-05-24T07:34:28.447Z,11.10
2023-05-24T07:36:58.859Z,11.10
2023-05-24T07:39:27.734Z,11.00
2023-05-24T07:41:55.981Z,11.00
2023-05-24T07:44:24.642Z,11.00
2023-05-24T07:46:53.327Z,11.20
2023-05-24T07:49:22.199Z,11.20
2023-05-24T07:51:50.389Z,11.30
2023-05-24T07:54:20.462Z,11.40
2023-05-24T07:56:48.889Z,11.50
2023-05-24T07:59:17.240Z,11.70
2023-05-24T08:01:45.629Z,11.80
2023-05-24T08:04:13.763Z,11.80
2023-05-24T08:06:42.090Z,11.80
2023-05-24T08:09:10.400Z,11.80
2023-05-24T08:11:39.892Z,11.90
2023-05-24T08:14:08.049Z,11.80
2023-05-24T08:16:36.572Z,11.80
2023-05-24T08:19:05.167Z,12.00
2023-05-24T08:21:33.892Z,12.00
2023-05-24T08:24:02.345Z,12.10
2023-05-24T08:26:30.546Z,12.20
2023-05-24T08:29:00.352Z,12.30
2023-05-24T08:31:28.581Z,12.30
2023-05-24T08:33:57.745Z,12.50
2023-05-24T08:36:26.892Z,12.60
2023-05-24T08:38:55.029Z,12.60
2023-05-24T08:41:23.231Z,12.70
2023-05-24T08:43:52.583Z,12.90
2023-05-24T08:46:23.362Z,12.90
2023-05-24T08:48:53.524Z,12.90
2023-05-24T08:51:22.038Z,13.10
2023-05-24T08:53:52.672Z,13.10
2023-05-24T08:56:21.686Z,13.00
2023-05-24T08:58:52.422Z,13.10
2023-05-24T09:01:22.329Z,13.10
2023-05-24T09:03:52.688Z,13.30
2023-05-24T09:06:20.948Z,13.30
2023-05-24T09:08:52.491Z,13.40
2023-05-24T09:11:22.919Z,13.30
2023-05-24T09:13:51.257Z,13.30
2023-05-24T09:16:19.942Z,13.50
2023-05-24T09:18:49.516Z,13.60
2023-05-24T09:21:18.018Z,13.80
2023-05-24T09:23:46.462Z,13.90
2023-05-24T09:26:15.057Z,14.00
2023-05-24T09:28:43.591Z,14.30
2023-05-24T09:33:40.970Z,14.80
2023-05-24T09:36:12.091Z,14.80
2023-05-24T09:38:40.495Z,15.00
2023-05-24T09:41:11.044Z,14.80
2023-05-24T09:43:50.299Z,14.90
2023-05-24T09:46:19.967Z,15.00
2023-05-24T09:48:58.724Z,15.10
2023-05-24T09:51:28.713Z,15.40
2023-05-24T09:53:59.086Z,15.40
2023-05-24T09:56:28.107Z,15.50
2023-05-24T09:58:57.177Z,15.80
2023-05-24T10:01:28.675Z,15.90
2023-05-24T10:03:58.290Z,15.90
2023-05-24T10:06:28.760Z,16.00
2023-05-24T10:08:57.739Z,16.00
2023-05-24T10:11:26.328Z,16.40
2023-05-24T10:13:54.971Z,16.40
2023-05-24T10:16:23.186Z,16.20
2023-05-24T10:18:51.825Z,16.20
2023-05-24T10:21:22.757Z,16.10
2023-05-24T10:23:56.651Z,16.10
2023-05-24T10:26:27.194Z,16.10
2023-05-24T10:29:01.192Z,15.70
2023-05-24T10:31:32.896Z,15.50
2023-05-24T10:34:07.981Z,15.80
2023-05-24T10:36:37.826Z,16.00
2023-05-24T10:39:11.239Z,16.20
2023-05-24T10:41:43.641Z,16.10
2023-05-24T10:44:19.728Z,15.70
2023-05-24T10:47:10.836Z,16.10
2023-05-24T10:49:40.152Z,16.00
2023-05-24T10:52:13.626Z,16.10
2023-05-24T10:55:04.473Z,16.10
2023-05-24T10:57:33.334Z,15.80
2023-05-24T11:03:05.341Z,15.80
2023-05-24T11:05:36.168Z,15.60
2023-05-24T11:08:05.924Z,15.60
2023-05-24T11:10:37.377Z,15.60
2023-05-24T11:13:09.579Z,15.70
2023-05-24T11:15:38.283Z,15.70
2023-05-24T11:18:16.389Z,16.00
2023-05-24T11:20:46.124Z,16.00
2023-05-24T11:23:16.331Z,16.60
2023-05-24T11:25:47.956Z,17.00
2023-05-24T11:28:16.493Z,17.60
2023-05-24T11:30:46.303Z,17.60
2023-05-24T11:33:18.772Z,17.80
2023-05-24T11:35:47.679Z,18.00
2023-05-24T11:38:16.983Z,17.90
2023-05-24T11:40:47.467Z,18.00
2023-05-24T11:43:16.889Z,18.30
2023-05-24T11:45:46.608Z,18.10
2023-05-24T11:48:14.957Z,18.10
2023-05-24T11:53:17.397Z,17.80
2023-05-24T11:55:48.740Z,18.10
2023-05-24T11:58:24.835Z,18.00
2023-05-24T12:00:53.466Z,18.10
2023-05-24T12:03:22.293Z,18.00
2023-05-24T12:05:51.401Z,18.00
2023-05-24T12:08:20.493Z,18.40
2023-05-24T12:10:52.059Z,18.10
2023-05-24T12:13:24.120Z,18.00
2023-05-24T12:15:55.861Z,18.00
2023-05-24T12:18:27.273Z,18.30
2023-05-24T12:20:55.881Z,18.30
2023-05-24T12:23:27.886Z,18.50
2023-05-24T12:26:01.197Z,18.60
2023-05-24T12:28:35.736Z,18.50
2023-05-24T12:31:04.461Z,18.70
2023-05-24T12:33:33.868Z,19.00
2023-05-24T12:36:02.395Z,19.20
2023-05-24T12:38:32.744Z,19.20
2023-05-24T12:43:33.794Z,19.40
2023-05-24T12:46:02.229Z,19.30
2023-05-24T12:48:31.060Z,18.90
2023-05-24T12:50:59.232Z,19.20
2023-05-24T12:53:27.378Z,19.10
2023-05-24T12:55:56.411Z,19.80
2023-05-24T12:58:26.296Z,19.60
2023-05-24T13:00:54.646Z,18.90
2023-05-24T13:03:22.964Z,19.30
2023-05-24T13:05:51.413Z,19.00
2023-05-24T13:08:20.040Z,18.80
2023-05-24T13:10:49.522Z,18.90
2023-05-24T13:13:17.746Z,19.30
2023-05-24T13:15:47.765Z,19.60
2023-05-24T13:18:16.257Z,19.10
2023-05-24T13:20:44.731Z,19.20
2023-05-24T13:23:13.466Z,19.60
2023-05-24T13:25:41.671Z,19.20
2023-05-24T13:28:10.034Z,19.50
2023-05-24T13:30:38.687Z,19.10
2023-05-24T13:33:08.289Z,19.20
2023-05-24T13:35:36.743Z,19.20
2023-05-24T13:38:04.886Z,19.40
2023-05-24T13:40:33.117Z,19.30
2023-05-24T13:43:01.788Z,19.40
2023-05-24T13:45:30.567Z,19.70
2023-05-24T13:48:04.004Z,19.00
2023-05-24T13:50:35.478Z,19.20
2023-05-24T13:53:04.455Z,19.50
2023-05-24T13:55:34.216Z,19.10
2023-05-24T13:58:05.259Z,19.60
2023-05-24T14:00:35.963Z,19.50
2023-05-24T14:03:06.231Z,19.20
2023-05-24T14:05:36.225Z,19.20
2023-05-24T14:08:06.925Z,19.40
2023-05-24T14:10:36.803Z,19.30
2023-05-24T14:13:29.091Z,19.00
2023-05-24T14:15:54.109Z,19.30
2023-05-24T14:18:22.624Z,19.60
2023-05-24T14:20:52.257Z,19.50
2023-05-24T14:23:20.448Z,19.40
2023-05-24T14:25:48.579Z,19.50
2023-05-24T14:28:17.028Z,19.50
2023-05-24T14:30:45.243Z,19.50
2023-05-24T14:33:13.647Z,19.20
2023-05-24T14:35:42.467Z,19.60
2023-05-24T14:38:13.235Z,19.90
2023-05-24T14:40:42.426Z,19.70
2023-05-24T14:43:11.323Z,19.90
2023-05-24T14:45:41.548Z,19.70
2023-05-24T14:48:11.702Z,19.80
2023-05-24T14:50:41.139Z,19.60
2023-05-24T14:53:12.640Z,19.40
2023-05-24T14:55:43.377Z,19.00
2023-05-24T14:58:12.750Z,18.80
2023-05-24T15:00:42.120Z,19.00
2023-05-24T15:03:12.778Z,18.80
2023-05-24T15:05:42.144Z,18.80
2023-05-24T15:08:12.583Z,18.80
2023-05-24T15:10:41.215Z,18.80
2023-05-24T15:13:09.495Z,18.70
2023-05-24T15:15:37.730Z,18.60
2023-05-24T15:18:06.146Z,18.60
2023-05-24T15:20:35.663Z,18.80
2023-05-24T15:23:04.382Z,18.90
2023-05-24T15:25:33.882Z,18.40
2023-05-24T15:28:02.111Z,18.40
2023-05-24T15:30:30.343Z,18.60
2023-05-24T15:32:58.594Z,18.30
2023-05-24T15:35:27.153Z,18.40
2023-05-24T15:37:55.308Z,18.40
2023-05-24T15:40:24.875Z,18.60
2023-05-24T15:42:54.593Z,18.50
2023-05-24T15:45:22.734Z,18.20
2023-05-24T15:47:50.995Z,18.20
2023-05-24T15:50:25.830Z,18.50
2023-05-24T15:53:00.328Z,18.30
2023-05-24T15:55:28.472Z,18.40
2023-05-24T15:57:58.720Z,18.00
2023-05-24T16:00:27.335Z,18.00
2023-05-24T16:02:56.926Z,18.20
2023-05-24T16:05:26.082Z,18.10
2023-05-24T16:07:54.260Z,18.10
2023-05-24T16:10:36.333Z,18.10
2023-05-24T16:13:05.915Z,18.00
2023-05-24T16:15:35.937Z,18.10
2023-05-24T16:18:04.912Z,18.10
2023-05-24T16:20:33.179Z,18.00
2023-05-24T16:23:01.872Z,18.20
2023-05-24T16:25:30.022Z,18.20
2023-05-24T16:27:58.214Z,18.20
2023-05-24T16:30:27.824Z,18.20
2023-05-24T16:32:56.060Z,18.30
2023-05-24T16:35:24.293Z,18.60
2023-05-24T16:37:52.836Z,18.50
2023-05-24T16:40:21.562Z,18.30
2023-05-24T16:42:51.263Z,18.30
2023-05-24T16:45:20.241Z,18.30
2023-05-24T16:47:49.883Z,18.40
2023-05-24T16:50:18.261Z,18.40
2023-05-24T16:52:46.631Z,18.40
2023-05-24T16:55:15.974Z,18.10
2023-05-24T16:57:44.288Z,17.90
2023-05-24T17:00:15.511Z,18.00
2023-05-24T17:02:44.144Z,18.20
2023-05-24T17:05:13.700Z,18.00
2023-05-24T17:07:42.816Z,18.00
2023-05-24T17:10:11.187Z,17.80
2023-05-24T17:12:39.867Z,17.60
2023-05-24T17:15:08.775Z,17.60
2023-05-24T17:17:36.973Z,17.60
2023-05-24T17:20:06.930Z,17.80
2023-05-24T17:22:36.616Z,18.00
2023-05-24T17:25:05.067Z,17.90
2023-05-24T17:27:33.253Z,17.80
2023-05-24T17:30:01.661Z,17.80
2023-05-24T17:32:29.876Z,17.70
2023-05-24T17:34:58.245Z,17.70
2023-05-24T17:37:26.423Z,17.60
2023-05-24T17:39:55.926Z,17.50
2023-05-24T17:42:24.991Z,17.60
2023-05-24T17:44:53.131Z,17.50
2023-05-24T17:47:21.537Z,17.20
2023-05-24T17:49:49.728Z,17.20
2023-05-24T17:52:18.497Z,17.30
2023-05-24T17:54:48.896Z,17.20
2023-05-24T17:57:18.433Z,17.30
2023-05-24T17:59:46.551Z,17.30
2023-05-24T18:02:14.992Z,17.30
2023-05-24T18:04:43.250Z,17.30
2023-05-24T18:07:11.484Z,17.30
2023-05-24T18:09:40.090Z,17.20
2023-05-24T18:12:08.816Z,17.10
2023-05-24T18:14:38.532Z,17.10
2023-05-24T18:17:06.735Z,17.10
2023-05-24T18:19:35.220Z,17.20
2023-05-24T18:22:03.836Z,16.80
2023-05-24T18:24:31.950Z,16.90
2023-05-24T18:27:00.641Z,16.80
2023-05-24T18:29:28.826Z,16.80
2023-05-24T18:31:58.427Z,16.80
2023-05-24T18:34:29.460Z,16.80
2023-05-24T18:36:57.872Z,16.70
2023-05-24T18:39:26.185Z,16.70
2023-05-24T18:41:54.620Z,16.50
2023-05-24T18:44:22.898Z,16.50
2023-05-24T18:46:55.606Z,16.40
2023-05-24T18:49:25.703Z,16.50
2023-05-24T18:51:54.166Z,16.50
2023-05-24T18:54:22.305Z,16.50
2023-05-24T18:56:50.456Z,16.40
2023-05-24T18:59:18.619Z,16.20
2023-05-24T19:01:46.809Z,15.70
2023-05-24T19:04:14.957Z,15.70
2023-05-24T19:06:44.564Z,15.40
2023-05-24T19:09:12.740Z,15.40
2023-05-24T19:11:40.918Z,15.40
2023-05-24T19:14:10.254Z,15.50
2023-05-24T19:16:38.697Z,15.60
2023-05-24T19:19:06.871Z,15.60
2023-05-24T19:21:35.429Z,15.50
2023-05-24T19:24:05.444Z,15.20
2023-05-24T19:26:33.656Z,15.20
2023-05-24T19:29:01.794Z,15.10
2023-05-24T19:31:30.074Z,15.20
2023-05-24T19:34:00.572Z,15.20
2023-05-24T19:36:30.052Z,15.20
2023-05-24T19:38:58.217Z,14.90
2023-05-24T19:41:27.904Z,15.00
2023-05-24T19:43:58.760Z,15.00
2023-05-24T19:46:27.365Z,14.90
2023-05-24T19:48:55.794Z,14.90
2023-05-24T19:51:23.964Z,14.90
2023-05-24T19:53:52.097Z,14.80
2023-05-24T19:56:20.834Z,14.80
2023-05-24T19:58:51.181Z,14.90
2023-05-24T20:01:19.366Z,14.80
2023-05-24T20:03:48.766Z,14.80
2023-05-24T20:06:17.914Z,14.70
2023-05-24T20:08:47.066Z,14.60
2023-05-24T20:11:15.649Z,14.50
2023-05-24T20:13:43.855Z,14.40
2023-05-24T20:16:13.440Z,14.50
2023-05-24T20:18:41.938Z,14.50
2023-05-24T20:21:10.392Z,14.50
2023-05-24T20:23:38.520Z,14.50
2023-05-24T20:26:07.084Z,14.40
2023-05-24T20:28:35.204Z,14.40
2023-05-24T20:31:03.404Z,14.30
2023-05-24T20:33:33.535Z,14.20
2023-05-24T20:36:01.975Z,14.00
2023-05-24T20:38:30.112Z,14.00
2023-05-24T20:40:58.323Z,14.00
2023-05-24T20:43:26.543Z,13.90
2023-05-24T20:45:55.305Z,13.80
2023-05-24T20:48:25.498Z,13.80
2023-05-24T20:50:55.341Z,13.80
2023-05-24T20:53:23.538Z,13.70
2023-05-24T20:55:51.657Z,13.60
2023-05-24T20:58:19.862Z,13.60
2023-05-24T21:00:48.261Z,13.50
2023-05-24T21:03:16.975Z,13.50
2023-05-24T21:05:45.437Z,13.40
2023-05-24T21:08:15.269Z,13.40
2023-05-24T21:10:43.422Z,13.30
2023-05-24T21:13:11.599Z,13.20
2023-05-24T21:15:40.035Z,13.20
2023-05-24T21:18:08.254Z,13.20
2023-05-24T21:20:36.771Z,13.10
2023-05-24T21:23:04.926Z,13.20
2023-05-24T21:25:34.820Z,13.10
2023-05-24T21:28:03.102Z,13.10
2023-05-24T21:30:31.865Z,13.10
2023-05-24T21:33:00.242Z,13.00
2023-05-24T21:35:28.529Z,12.90
2023-05-24T21:37:57.175Z,12.90
2023-05-24T21:40:25.415Z,12.80
2023-05-24T21:42:54.954Z,12.70
2023-05-24T21:45:23.131Z,12.70
2023-05-24T21:47:51.329Z,12.70
2023-05-24T21:50:19.489Z,12.60
2023-05-24T21:52:47.860Z,12.60
2023-05-24T21:55:16.129Z,12.50
2023-05-24T21:57:44.549Z,12.50
2023-05-24T22:00:17.055Z,12.50
2023-05-24T22:02:46.387Z,12.40
2023-05-24T22:05:15.094Z,12.40
2023-05-24T22:07:43.267Z,12.40
2023-05-24T22:10:12.683Z,12.30
2023-05-24T22:12:40.876Z,12.20
2023-05-24T22:15:10.067Z,12.20
2023-05-24T22:17:41.146Z,12.10
2023-05-24T22:20:11.080Z,12.10
2023-05-24T22:22:40.745Z,12.10
2023-05-24T22:25:10.923Z,12.00
2023-05-24T22:27:39.080Z,12.00
2023-05-24T22:30:10.075Z,12.00
2023-05-24T22:32:39.701Z,11.90
2023-05-24T22:35:08.830Z,11.90
2023-05-24T22:37:37.289Z,11.90
2023-05-24T22:40:05.942Z,11.70
2023-05-24T22:42:34.079Z,11.70
2023-05-24T22:45:02.508Z,11.80
2023-05-24T22:47:33.564Z,11.80
2023-05-24T22:50:04.808Z,11.70
2023-05-24T22:52:34.175Z,11.60
2023-05-24T22:55:02.339Z,11.70
2023-05-24T22:57:30.869Z,11.60
2023-05-24T22:59:59.042Z,11.70
2023-05-24T23:02:29.047Z,11.60
2023-05-24T23:04:57.555Z,11.60
2023-05-24T23:07:27.384Z,11.60
2023-05-24T23:09:55.584Z,11.60
2023-05-24T23:12:23.980Z,11.50
2023-05-24T23:14:52.557Z,11.50
2023-05-24T23:17:22.305Z,11.40
2023-05-24T23:19:50.648Z,11.40
2023-05-24T23:22:19.409Z,11.40
2023-05-24T23:24:49.061Z,11.40
2023-05-24T23:27:17.268Z,11.30
2023-05-24T23:29:45.597Z,11.30
2023-05-24T23:32:14.293Z,11.30
2023-05-24T23:34:42.499Z,11.40
2023-05-24T23:37:10.677Z,11.40
2023-05-24T23:39:39.203Z,11.40
2023-05-24T23:42:09.184Z,11.30
2023-05-24T23:44:37.607Z,11.20
2023-05-24T23:47:06.694Z,11.20
2023-05-24T23:49:35.042Z,11.30
2023-05-24T23:52:03.495Z,11.40
2023-05-24T23:54:31.731Z,11.40
2023-05-24T23:57:00.239Z,11.30
2023-05-24T23:59:29.758Z,11.20
